sensor_id;sensor_type;location;lat;lon;timestamp;pressure;altitude;pressure_sealevel;temperature;humidity
12215;BME280;6170;42.206;24.142;2023-06-22T00:00:12;99012.53;;;22.10;76.49
12215;BME280;6170;42.206;24.142;2023-06-22T00:02:39;98980.56;;;21.85;76.61
12215;BME280;6170;42.206;24.142;2023-06-22T00:05:06;99011.38;;;21.91;77.40
12215;BME280;6170;42.206;24.142;2023-06-22T00:07:33;99075.03;;;22.22;77.28
12215;BME280;6170;42.206;24.142;2023-06-22T00:10:00;99033.44;;;21.79;77.29
12215;BME280;6170;42.206;24.142;2023-06-22T00:12:28;99036.94;;;21.65;77.65
12215;BME280;6170;42.206;24.142;2023-06-22T00:14:55;99043.50;;;21.64;78.09
12215;BME280;6170;42.206;24.142;2023-06-22T00:17:22;99079.31;;;21.87;78.48
12215;BME280;6170;42.206;24.142;2023-06-22T00:19:49;99082.50;;;21.69;78.12
12215;BME280;6170;42.206;24.142;2023-06-22T00:22:19;99047.06;;;21.69;76.94
12215;BME280;6170;42.206;24.142;2023-06-22T00:24:54;99045.41;;;21.58;76.72
12215;BME280;6170;42.206;24.142;2023-06-22T00:27:21;99090.03;;;21.99;76.49
12215;BME280;6170;42.206;24.142;2023-06-22T00:29:49;99052.81;;;21.78;75.73
12215;BME280;6170;42.206;24.142;2023-06-22T00:32:16;99084.03;;;22.17;75.45
12215;BME280;6170;42.206;24.142;2023-06-22T00:34:44;99038.66;;;21.86;75.29
12215;BME280;6170;42.206;24.142;2023-06-22T00:37:11;99035.00;;;21.50;75.74
12215;BME280;6170;42.206;24.142;2023-06-22T00:39:38;99055.00;;;21.76;75.31
12215;BME280;6170;42.206;24.142;2023-06-22T00:42:05;99099.56;;;22.02;74.94
12215;BME280;6170;42.206;24.142;2023-06-22T00:44:32;99039.72;;;21.75;74.96
12215;BME280;6170;42.206;24.142;2023-06-22T00:47:00;99053.66;;;21.83;75.13
12215;BME280;6170;42.206;24.142;2023-06-22T00:49:27;99067.56;;;21.87;74.72
12215;BME280;6170;42.206;24.142;2023-06-22T00:51:55;99092.44;;;21.95;75.28
12215;BME280;6170;42.206;24.142;2023-06-22T00:54:22;99045.50;;;21.21;77.14
12215;BME280;6170;42.206;24.142;2023-06-22T00:56:50;99036.81;;;21.24;76.92
12215;BME280;6170;42.206;24.142;2023-06-22T00:59:20;99039.91;;;21.01;77.97
12215;BME280;6170;42.206;24.142;2023-06-22T01:01:47;99092.91;;;21.15;78.97
12215;BME280;6170;42.206;24.142;2023-06-22T01:04:15;99041.19;;;20.51;80.90
12215;BME280;6170;42.206;24.142;2023-06-22T01:06:50;99039.84;;;20.54;80.64
12215;BME280;6170;42.206;24.142;2023-06-22T01:09:29;99040.25;;;20.36;81.38
12215;BME280;6170;42.206;24.142;2023-06-22T01:12:01;99089.72;;;20.59;81.21
12215;BME280;6170;42.206;24.142;2023-06-22T01:14:34;99044.66;;;20.42;81.23
12215;BME280;6170;42.206;24.142;2023-06-22T01:17:04;99039.22;;;20.42;81.52
12215;BME280;6170;42.206;24.142;2023-06-22T01:19:39;99039.88;;;20.00;82.31
12215;BME280;6170;42.206;24.142;2023-06-22T01:22:13;99081.47;;;19.96;83.96
12215;BME280;6170;42.206;24.142;2023-06-22T01:24:48;99045.53;;;19.45;84.56
12215;BME280;6170;42.206;24.142;2023-06-22T01:27:39;99087.69;;;19.91;84.25
12215;BME280;6170;42.206;24.142;2023-06-22T01:30:10;99040.75;;;19.79;83.44
12215;BME280;6170;42.206;24.142;2023-06-22T01:32:38;99044.59;;;19.83;83.92
12215;BME280;6170;42.206;24.142;2023-06-22T01:35:07;99037.97;;;19.74;84.00
12215;BME280;6170;42.206;24.142;2023-06-22T01:37:36;99034.28;;;19.58;84.66
12215;BME280;6170;42.206;24.142;2023-06-22T01:40:05;99045.53;;;19.67;85.18
12215;BME280;6170;42.206;24.142;2023-06-22T01:42:33;99033.31;;;19.69;84.78
12215;BME280;6170;42.206;24.142;2023-06-22T01:45:01;99031.94;;;19.67;85.22
12215;BME280;6170;42.206;24.142;2023-06-22T01:47:30;99030.69;;;19.80;84.45
12215;BME280;6170;42.206;24.142;2023-06-22T01:49:58;99023.63;;;19.79;83.71
12215;BME280;6170;42.206;24.142;2023-06-22T01:52:25;99015.28;;;19.85;82.02
12215;BME280;6170;42.206;24.142;2023-06-22T01:54:51;99036.91;;;20.02;81.16
12215;BME280;6170;42.206;24.142;2023-06-22T01:57:18;99093.59;;;20.37;81.19
12215;BME280;6170;42.206;24.142;2023-06-22T01:59:50;99041.78;;;20.27;79.83
12215;BME280;6170;42.206;24.142;2023-06-22T02:02:20;99048.41;;;19.82;80.74
12215;BME280;6170;42.206;24.142;2023-06-22T02:04:57;99100.84;;;20.26;79.97
12215;BME280;6170;42.206;24.142;2023-06-22T02:07:29;99047.66;;;19.87;80.37
12215;BME280;6170;42.206;24.142;2023-06-22T02:09:59;99050.69;;;20.17;79.87
12215;BME280;6170;42.206;24.142;2023-06-22T02:12:30;99052.06;;;19.93;81.68
12215;BME280;6170;42.206;24.142;2023-06-22T02:14:58;99052.09;;;19.98;81.55
12215;BME280;6170;42.206;24.142;2023-06-22T02:17:26;99049.59;;;19.91;81.84
12215;BME280;6170;42.206;24.142;2023-06-22T02:19:54;99056.88;;;20.12;80.71
12215;BME280;6170;42.206;24.142;2023-06-22T02:22:22;99051.09;;;20.31;79.83
12215;BME280;6170;42.206;24.142;2023-06-22T02:24:49;99108.56;;;20.66;78.99
12215;BME280;6170;42.206;24.142;2023-06-22T02:27:16;99115.09;;;20.65;79.05
12215;BME280;6170;42.206;24.142;2023-06-22T02:29:43;99104.88;;;20.50;79.31
12215;BME280;6170;42.206;24.142;2023-06-22T02:32:09;99070.78;;;20.16;79.78
12215;BME280;6170;42.206;24.142;2023-06-22T02:34:36;99074.38;;;19.95;80.82
12215;BME280;6170;42.206;24.142;2023-06-22T02:37:05;99083.13;;;19.75;81.49
12215;BME280;6170;42.206;24.142;2023-06-22T02:39:32;99081.16;;;19.70;81.64
12215;BME280;6170;42.206;24.142;2023-06-22T02:41:59;99076.25;;;19.67;82.49
12215;BME280;6170;42.206;24.142;2023-06-22T02:44:26;99128.84;;;20.00;82.58
12215;BME280;6170;42.206;24.142;2023-06-22T02:46:53;99072.28;;;19.53;83.11
12215;BME280;6170;42.206;24.142;2023-06-22T02:49:20;99083.88;;;19.70;82.13
12215;BME280;6170;42.206;24.142;2023-06-22T02:51:48;99120.19;;;19.81;83.11
12215;BME280;6170;42.206;24.142;2023-06-22T02:54:16;99082.25;;;19.69;82.92
12215;BME280;6170;42.206;24.142;2023-06-22T02:56:43;99135.66;;;20.02;82.21
12215;BME280;6170;42.206;24.142;2023-06-22T02:59:10;99073.97;;;19.81;81.66
12215;BME280;6170;42.206;24.142;2023-06-22T03:01:37;99050.78;;;19.73;80.98
12215;BME280;6170;42.206;24.142;2023-06-22T03:04:05;99078.84;;;20.06;80.42
12215;BME280;6170;42.206;24.142;2023-06-22T03:06:32;99127.31;;;20.31;81.09
12215;BME280;6170;42.206;24.142;2023-06-22T03:09:00;99089.06;;;20.21;80.70
12215;BME280;6170;42.206;24.142;2023-06-22T03:11:30;99122.91;;;20.56;80.42
12215;BME280;6170;42.206;24.142;2023-06-22T03:13:58;99118.91;;;20.64;79.92
12215;BME280;6170;42.206;24.142;2023-06-22T03:16:25;99070.19;;;20.36;79.67
12215;BME280;6170;42.206;24.142;2023-06-22T03:18:52;99083.84;;;20.41;79.38
12215;BME280;6170;42.206;24.142;2023-06-22T03:21:21;99088.16;;;20.37;78.98
12215;BME280;6170;42.206;24.142;2023-06-22T03:23:48;99110.31;;;20.24;80.84
12215;BME280;6170;42.206;24.142;2023-06-22T03:26:16;99081.00;;;20.04;81.10
12215;BME280;6170;42.206;24.142;2023-06-22T03:28:45;99082.44;;;20.11;80.23
12215;BME280;6170;42.206;24.142;2023-06-22T03:31:12;99088.28;;;20.25;79.76
12215;BME280;6170;42.206;24.142;2023-06-22T03:33:38;99088.72;;;20.39;79.55
12215;BME280;6170;42.206;24.142;2023-06-22T03:36:05;99082.03;;;20.51;79.10
12215;BME280;6170;42.206;24.142;2023-06-22T03:38:32;99078.72;;;20.81;78.19
12215;BME280;6170;42.206;24.142;2023-06-22T03:40:59;99081.50;;;20.86;78.33
12215;BME280;6170;42.206;24.142;2023-06-22T03:43:26;99086.19;;;20.96;77.90
12215;BME280;6170;42.206;24.142;2023-06-22T03:45:54;99139.09;;;21.37;77.71
12215;BME280;6170;42.206;24.142;2023-06-22T03:48:21;99099.56;;;21.02;77.85
12215;BME280;6170;42.206;24.142;2023-06-22T03:50:48;99106.44;;;21.10;77.72
12215;BME280;6170;42.206;24.142;2023-06-22T03:53:15;99098.34;;;21.20;77.35
12215;BME280;6170;42.206;24.142;2023-06-22T03:55:48;99152.16;;;21.35;77.32
12215;BME280;6170;42.206;24.142;2023-06-22T03:58:16;99100.69;;;21.01;77.11
12215;BME280;6170;42.206;24.142;2023-06-22T04:00:45;99104.09;;;21.19;76.73
12215;BME280;6170;42.206;24.142;2023-06-22T04:03:14;99110.53;;;21.49;75.40
12215;BME280;6170;42.206;24.142;2023-06-22T04:05:42;99149.28;;;21.57;75.90
12215;BME280;6170;42.206;24.142;2023-06-22T04:08:09;99152.44;;;21.85;75.01
12215;BME280;6170;42.206;24.142;2023-06-22T04:10:35;99101.09;;;21.72;74.62
12215;BME280;6170;42.206;24.142;2023-06-22T04:13:02;99106.00;;;21.75;74.83
12215;BME280;6170;42.206;24.142;2023-06-22T04:15:29;99103.56;;;21.79;74.90
12215;BME280;6170;42.206;24.142;2023-06-22T04:17:56;99155.06;;;22.32;74.70
12215;BME280;6170;42.206;24.142;2023-06-22T04:20:25;99104.53;;;22.20;73.79
12215;BME280;6170;42.206;24.142;2023-06-22T04:22:52;99098.56;;;22.38;72.96
12215;BME280;6170;42.206;24.142;2023-06-22T04:25:19;99160.06;;;22.81;73.09
12215;BME280;6170;42.206;24.142;2023-06-22T04:27:46;99118.00;;;22.92;72.15
12215;BME280;6170;42.206;24.142;2023-06-22T04:30:14;99118.47;;;23.29;70.71
12215;BME280;6170;42.206;24.142;2023-06-22T04:32:42;99116.97;;;23.78;68.98
12215;BME280;6170;42.206;24.142;2023-06-22T04:35:09;99118.25;;;24.00;68.59
12215;BME280;6170;42.206;24.142;2023-06-22T04:37:38;99130.28;;;23.99;68.67
12215;BME280;6170;42.206;24.142;2023-06-22T04:40:06;99125.03;;;24.57;67.83
12215;BME280;6170;42.206;24.142;2023-06-22T04:42:34;99122.53;;;25.28;66.14
12215;BME280;6170;42.206;24.142;2023-06-22T04:45:02;99156.31;;;25.53;64.12
12215;BME280;6170;42.206;24.142;2023-06-22T04:47:29;99137.66;;;25.49;65.22
12215;BME280;6170;42.206;24.142;2023-06-22T04:49:56;99133.63;;;25.71;65.22
12215;BME280;6170;42.206;24.142;2023-06-22T04:52:22;99123.34;;;25.81;64.48
12215;BME280;6170;42.206;24.142;2023-06-22T04:54:51;99119.91;;;26.13;64.23
12215;BME280;6170;42.206;24.142;2023-06-22T04:57:21;99122.88;;;25.74;64.10
12215;BME280;6170;42.206;24.142;2023-06-22T04:59:58;99154.63;;;26.28;64.46
12215;BME280;6170;42.206;24.142;2023-06-22T05:02:27;99112.06;;;26.44;63.55
12215;BME280;6170;42.206;24.142;2023-06-22T05:04:58;99115.50;;;26.55;63.10
12215;BME280;6170;42.206;24.142;2023-06-22T05:07:25;99140.81;;;27.21;63.64
12215;BME280;6170;42.206;24.142;2023-06-22T05:09:53;99140.31;;;26.82;63.75
12215;BME280;6170;42.206;24.142;2023-06-22T05:12:20;99104.28;;;27.02;63.16
12215;BME280;6170;42.206;24.142;2023-06-22T05:14:47;99134.09;;;27.41;61.81
12215;BME280;6170;42.206;24.142;2023-06-22T05:17:14;99093.44;;;27.38;61.11
12215;BME280;6170;42.206;24.142;2023-06-22T05:19:44;99123.75;;;28.42;58.66
12215;BME280;6170;42.206;24.142;2023-06-22T05:22:14;99088.31;;;28.49;57.68
12215;BME280;6170;42.206;24.142;2023-06-22T05:24:41;99089.56;;;28.66;58.59
12215;BME280;6170;42.206;24.142;2023-06-22T05:27:10;99097.06;;;28.87;56.94
12215;BME280;6170;42.206;24.142;2023-06-22T05:29:37;99141.19;;;29.10;58.50
12215;BME280;6170;42.206;24.142;2023-06-22T05:32:05;99096.94;;;28.70;59.77
12215;BME280;6170;42.206;24.142;2023-06-22T05:34:32;99107.63;;;29.16;59.34
12215;BME280;6170;42.206;24.142;2023-06-22T05:36:59;99097.28;;;28.99;53.74
12215;BME280;6170;42.206;24.142;2023-06-22T05:39:26;99093.03;;;29.47;56.23
12215;BME280;6170;42.206;24.142;2023-06-22T05:41:53;99100.69;;;29.58;56.05
12215;BME280;6170;42.206;24.142;2023-06-22T05:44:21;99101.41;;;29.33;58.75
12215;BME280;6170;42.206;24.142;2023-06-22T05:46:48;99106.06;;;29.63;54.57
12215;BME280;6170;42.206;24.142;2023-06-22T05:49:15;99103.13;;;29.60;53.95
12215;BME280;6170;42.206;24.142;2023-06-22T05:51:42;99108.03;;;29.71;55.55
12215;BME280;6170;42.206;24.142;2023-06-22T05:54:09;99143.59;;;29.95;55.69
12215;BME280;6170;42.206;24.142;2023-06-22T05:56:38;99107.19;;;30.02;54.04
12215;BME280;6170;42.206;24.142;2023-06-22T05:59:05;99079.91;;;30.34;54.43
12215;BME280;6170;42.206;24.142;2023-06-22T06:01:34;99105.78;;;30.47;53.50
12215;BME280;6170;42.206;24.142;2023-06-22T06:04:02;99095.34;;;29.62;53.53
12215;BME280;6170;42.206;24.142;2023-06-22T06:06:29;99095.75;;;29.38;56.06
12215;BME280;6170;42.206;24.142;2023-06-22T06:08:56;99101.34;;;29.24;56.32
12215;BME280;6170;42.206;24.142;2023-06-22T06:11:24;99078.22;;;29.12;56.80
12215;BME280;6170;42.206;24.142;2023-06-22T06:13:51;99089.75;;;29.44;56.06
12215;BME280;6170;42.206;24.142;2023-06-22T06:16:18;99131.16;;;29.44;55.98
12215;BME280;6170;42.206;24.142;2023-06-22T06:18:46;99083.88;;;29.07;55.50
12215;BME280;6170;42.206;24.142;2023-06-22T06:21:16;99084.69;;;28.63;55.30
12215;BME280;6170;42.206;24.142;2023-06-22T06:23:43;99082.91;;;28.80;56.28
12215;BME280;6170;42.206;24.142;2023-06-22T06:26:09;99126.53;;;28.65;57.98
12215;BME280;6170;42.206;24.142;2023-06-22T06:28:36;99086.78;;;28.79;57.80
12215;BME280;6170;42.206;24.142;2023-06-22T06:31:03;99123.50;;;29.33;55.26
12215;BME280;6170;42.206;24.142;2023-06-22T06:33:32;99069.16;;;29.20;54.74
12215;BME280;6170;42.206;24.142;2023-06-22T06:36:00;99119.94;;;29.80;55.48
12215;BME280;6170;42.206;24.142;2023-06-22T06:38:29;99093.84;;;29.95;56.32
12215;BME280;6170;42.206;24.142;2023-06-22T06:40:56;99097.75;;;29.94;56.52
12215;BME280;6170;42.206;24.142;2023-06-22T06:43:22;99086.13;;;30.57;55.63
12215;BME280;6170;42.206;24.142;2023-06-22T06:45:50;99094.88;;;31.02;55.29
12215;BME280;6170;42.206;24.142;2023-06-22T06:48:17;99082.16;;;31.10;54.44
12215;BME280;6170;42.206;24.142;2023-06-22T06:50:44;99102.47;;;31.69;54.76
12215;BME280;6170;42.206;24.142;2023-06-22T06:53:12;99132.91;;;31.23;51.10
12215;BME280;6170;42.206;24.142;2023-06-22T06:55:39;99092.91;;;31.49;53.55
12215;BME280;6170;42.206;24.142;2023-06-22T06:58:06;99089.94;;;31.92;51.79
12215;BME280;6170;42.206;24.142;2023-06-22T07:00:35;99100.56;;;32.20;49.98
12215;BME280;6170;42.206;24.142;2023-06-22T07:03:02;99099.28;;;32.17;48.84
12215;BME280;6170;42.206;24.142;2023-06-22T07:05:29;99136.03;;;32.56;50.30
12215;BME280;6170;42.206;24.142;2023-06-22T07:07:56;99130.00;;;33.28;47.50
12215;BME280;6170;42.206;24.142;2023-06-22T07:10:24;99103.84;;;33.29;49.30
12215;BME280;6170;42.206;24.142;2023-06-22T07:12:51;99096.66;;;32.62;48.85
12215;BME280;6170;42.206;24.142;2023-06-22T07:15:18;99091.03;;;33.61;46.45
12215;BME280;6170;42.206;24.142;2023-06-22T07:17:45;99107.44;;;33.41;48.89
12215;BME280;6170;42.206;24.142;2023-06-22T07:20:12;99133.44;;;34.31;47.32
12215;BME280;6170;42.206;24.142;2023-06-22T07:22:40;99096.09;;;34.32;45.39
12215;BME280;6170;42.206;24.142;2023-06-22T07:25:08;99072.94;;;33.18;46.34
12215;BME280;6170;42.206;24.142;2023-06-22T07:27:38;99074.69;;;33.59;46.09
12215;BME280;6170;42.206;24.142;2023-06-22T07:30:09;99081.44;;;33.70;48.43
12215;BME280;6170;42.206;24.142;2023-06-22T07:32:36;99125.16;;;34.46;46.58
12215;BME280;6170;42.206;24.142;2023-06-22T07:35:03;99079.56;;;34.23;46.35
12215;BME280;6170;42.206;24.142;2023-06-22T07:37:31;99070.41;;;34.10;45.20
12215;BME280;6170;42.206;24.142;2023-06-22T07:39:59;99086.63;;;34.60;47.14
12215;BME280;6170;42.206;24.142;2023-06-22T07:42:26;99118.13;;;34.12;47.25
12215;BME280;6170;42.206;24.142;2023-06-22T07:44:59;99075.00;;;34.43;44.51
12215;BME280;6170;42.206;24.142;2023-06-22T07:47:28;99112.44;;;35.01;45.07
12215;BME280;6170;42.206;24.142;2023-06-22T07:49:55;99067.66;;;34.50;46.62
12215;BME280;6170;42.206;24.142;2023-06-22T07:52:23;99091.53;;;35.07;44.72
12215;BME280;6170;42.206;24.142;2023-06-22T07:54:51;99065.50;;;34.32;46.71
12215;BME280;6170;42.206;24.142;2023-06-22T07:57:18;99059.28;;;34.50;47.70
12215;BME280;6170;42.206;24.142;2023-06-22T07:59:45;99057.53;;;34.06;47.75
12215;BME280;6170;42.206;24.142;2023-06-22T08:02:14;99093.84;;;35.17;46.41
12215;BME280;6170;42.206;24.142;2023-06-22T08:04:41;99059.59;;;35.32;43.67
12215;BME280;6170;42.206;24.142;2023-06-22T08:07:08;99060.22;;;35.26;43.53
12215;BME280;6170;42.206;24.142;2023-06-22T08:09:35;99085.59;;;35.68;45.13
12215;BME280;6170;42.206;24.142;2023-06-22T08:12:03;99083.13;;;35.50;45.05
12215;BME280;6170;42.206;24.142;2023-06-22T08:14:30;99048.56;;;34.92;48.68
12215;BME280;6170;42.206;24.142;2023-06-22T08:16:56;99064.06;;;35.37;42.54
12215;BME280;6170;42.206;24.142;2023-06-22T08:19:25;99045.66;;;35.48;44.18
12215;BME280;6170;42.206;24.142;2023-06-22T08:21:52;99045.31;;;35.65;46.33
12215;BME280;6170;42.206;24.142;2023-06-22T08:24:18;99047.00;;;35.38;43.44
12215;BME280;6170;42.206;24.142;2023-06-22T08:26:45;99080.63;;;35.30;44.32
12215;BME280;6170;42.206;24.142;2023-06-22T08:29:12;99056.19;;;35.39;45.01
12215;BME280;6170;42.206;24.142;2023-06-22T08:31:40;99082.53;;;35.73;43.75
12215;BME280;6170;42.206;24.142;2023-06-22T08:34:06;99043.06;;;35.39;42.89
12215;BME280;6170;42.206;24.142;2023-06-22T08:36:35;99085.53;;;35.99;45.79
12215;BME280;6170;42.206;24.142;2023-06-22T08:39:08;99038.69;;;35.10;47.42
12215;BME280;6170;42.206;24.142;2023-06-22T08:41:35;99079.81;;;35.60;44.11
12215;BME280;6170;42.206;24.142;2023-06-22T08:44:02;99054.03;;;35.98;45.17
12215;BME280;6170;42.206;24.142;2023-06-22T08:46:29;99051.41;;;35.39;45.18
12215;BME280;6170;42.206;24.142;2023-06-22T08:48:59;99038.81;;;35.45;42.93
12215;BME280;6170;42.206;24.142;2023-06-22T08:51:26;99037.38;;;35.51;43.79
12215;BME280;6170;42.206;24.142;2023-06-22T08:53:55;99041.72;;;35.65;43.55
12215;BME280;6170;42.206;24.142;2023-06-22T08:56:22;99077.38;;;36.25;44.15
12215;BME280;6170;42.206;24.142;2023-06-22T08:58:49;99038.00;;;35.76;43.80
12215;BME280;6170;42.206;24.142;2023-06-22T09:01:16;99036.94;;;36.00;45.48
12215;BME280;6170;42.206;24.142;2023-06-22T09:03:43;99035.59;;;35.94;44.67
12215;BME280;6170;42.206;24.142;2023-06-22T09:06:11;99037.44;;;35.86;44.90
12215;BME280;6170;42.206;24.142;2023-06-22T09:08:40;99031.72;;;36.14;43.48
12215;BME280;6170;42.206;24.142;2023-06-22T09:11:08;99017.59;;;35.72;42.58
12215;BME280;6170;42.206;24.142;2023-06-22T09:13:35;99024.31;;;36.41;44.14
12215;BME280;6170;42.206;24.142;2023-06-22T09:16:02;99022.31;;;35.87;42.56
12215;BME280;6170;42.206;24.142;2023-06-22T09:18:29;99015.97;;;35.08;42.46
12215;BME280;6170;42.206;24.142;2023-06-22T09:20:56;98999.38;;;34.96;44.98
12215;BME280;6170;42.206;24.142;2023-06-22T09:23:23;99013.34;;;34.84;45.63
12215;BME280;6170;42.206;24.142;2023-06-22T09:25:50;99003.00;;;34.85;43.39
12215;BME280;6170;42.206;24.142;2023-06-22T09:28:18;99039.94;;;34.82;44.06
12215;BME280;6170;42.206;24.142;2023-06-22T09:30:45;99007.78;;;34.84;44.54
12215;BME280;6170;42.206;24.142;2023-06-22T09:33:12;99050.97;;;35.37;46.91
12215;BME280;6170;42.206;24.142;2023-06-22T09:35:39;99015.53;;;35.69;43.70
12215;BME280;6170;42.206;24.142;2023-06-22T09:38:06;99018.38;;;35.10;44.21
12215;BME280;6170;42.206;24.142;2023-06-22T09:40:32;99020.81;;;35.58;44.11
12215;BME280;6170;42.206;24.142;2023-06-22T09:43:05;99019.72;;;35.63;44.28
12215;BME280;6170;42.206;24.142;2023-06-22T09:45:33;99043.16;;;35.43;44.27
12215;BME280;6170;42.206;24.142;2023-06-22T09:48:00;99050.81;;;35.96;43.95
12215;BME280;6170;42.206;24.142;2023-06-22T09:50:27;99019.94;;;34.92;40.88
12215;BME280;6170;42.206;24.142;2023-06-22T09:52:54;99017.00;;;35.16;39.98
12215;BME280;6170;42.206;24.142;2023-06-22T09:55:21;99044.50;;;35.18;41.93
12215;BME280;6170;42.206;24.142;2023-06-22T09:57:48;99014.66;;;35.65;41.96
12215;BME280;6170;42.206;24.142;2023-06-22T10:00:16;99005.94;;;35.67;41.82
12215;BME280;6170;42.206;24.142;2023-06-22T10:02:46;99001.31;;;35.74;43.01
12215;BME280;6170;42.206;24.142;2023-06-22T10:05:13;99048.69;;;35.58;44.51
12215;BME280;6170;42.206;24.142;2023-06-22T10:07:40;99008.28;;;35.49;43.35
12215;BME280;6170;42.206;24.142;2023-06-22T10:10:09;99038.13;;;35.99;38.16
12215;BME280;6170;42.206;24.142;2023-06-22T10:12:36;98997.44;;;35.63;43.38
12215;BME280;6170;42.206;24.142;2023-06-22T10:15:04;99032.09;;;35.97;41.54
12215;BME280;6170;42.206;24.142;2023-06-22T10:17:31;99003.91;;;36.37;41.40
12215;BME280;6170;42.206;24.142;2023-06-22T10:20:00;98988.41;;;36.20;40.54
12215;BME280;6170;42.206;24.142;2023-06-22T10:22:31;98984.47;;;36.06;42.13
12215;BME280;6170;42.206;24.142;2023-06-22T10:24:58;98987.44;;;36.13;43.05
12215;BME280;6170;42.206;24.142;2023-06-22T10:27:25;98994.72;;;36.36;41.91
12215;BME280;6170;42.206;24.142;2023-06-22T10:29:51;99023.03;;;36.38;39.28
12215;BME280;6170;42.206;24.142;2023-06-22T10:32:19;98985.03;;;35.60;38.13
12215;BME280;6170;42.206;24.142;2023-06-22T10:34:46;98969.88;;;34.95;38.30
12215;BME280;6170;42.206;24.142;2023-06-22T10:37:14;98960.69;;;33.44;38.92
12215;BME280;6170;42.206;24.142;2023-06-22T10:39:41;99001.69;;;34.11;38.98
12215;BME280;6170;42.206;24.142;2023-06-22T10:42:08;98956.09;;;34.27;42.46
12215;BME280;6170;42.206;24.142;2023-06-22T10:44:35;98996.19;;;34.82;44.91
12215;BME280;6170;42.206;24.142;2023-06-22T10:47:01;98953.72;;;34.85;43.64
12215;BME280;6170;42.206;24.142;2023-06-22T10:49:28;98955.94;;;35.42;42.29
12215;BME280;6170;42.206;24.142;2023-06-22T10:51:55;98997.78;;;36.31;41.27
12215;BME280;6170;42.206;24.142;2023-06-22T10:54:23;98955.03;;;35.89;44.43
12215;BME280;6170;42.206;24.142;2023-06-22T10:56:50;98950.59;;;36.23;43.83
12215;BME280;6170;42.206;24.142;2023-06-22T10:59:17;98955.66;;;36.17;40.95
12215;BME280;6170;42.206;24.142;2023-06-22T11:01:46;98949.19;;;36.32;40.57
12215;BME280;6170;42.206;24.142;2023-06-22T11:04:13;98943.41;;;35.68;44.68
12215;BME280;6170;42.206;24.142;2023-06-22T11:06:40;98956.75;;;36.32;42.44
12215;BME280;6170;42.206;24.142;2023-06-22T11:09:07;98948.25;;;35.55;42.21
12215;BME280;6170;42.206;24.142;2023-06-22T11:11:35;98944.47;;;36.56;43.44
12215;BME280;6170;42.206;24.142;2023-06-22T11:14:02;98949.44;;;36.66;42.18
12215;BME280;6170;42.206;24.142;2023-06-22T11:16:29;98987.25;;;35.86;41.72
12215;BME280;6170;42.206;24.142;2023-06-22T11:18:56;98957.13;;;35.76;38.66
12215;BME280;6170;42.206;24.142;2023-06-22T11:21:23;98950.56;;;35.84;36.72
12215;BME280;6170;42.206;24.142;2023-06-22T11:23:49;98942.84;;;35.78;37.53
12215;BME280;6170;42.206;24.142;2023-06-22T11:26:16;98944.94;;;36.19;42.70
12215;BME280;6170;42.206;24.142;2023-06-22T11:28:45;98937.47;;;36.08;39.46
12215;BME280;6170;42.206;24.142;2023-06-22T11:31:12;98979.13;;;36.55;41.34
12215;BME280;6170;42.206;24.142;2023-06-22T11:33:39;98938.72;;;35.72;41.98
12215;BME280;6170;42.206;24.142;2023-06-22T11:36:06;98924.59;;;34.98;41.38
12215;BME280;6170;42.206;24.142;2023-06-22T11:38:33;98974.38;;;35.47;42.93
12215;BME280;6170;42.206;24.142;2023-06-22T11:41:01;98968.56;;;36.06;43.31
12215;BME280;6170;42.206;24.142;2023-06-22T11:43:28;98922.16;;;35.28;41.05
12215;BME280;6170;42.206;24.142;2023-06-22T11:45:56;98933.84;;;35.49;40.78
12215;BME280;6170;42.206;24.142;2023-06-22T11:48:23;98931.69;;;35.78;43.09
12215;BME280;6170;42.206;24.142;2023-06-22T11:50:50;98928.81;;;34.92;42.94
12215;BME280;6170;42.206;24.142;2023-06-22T11:53:17;98960.81;;;35.30;43.74
12215;BME280;6170;42.206;24.142;2023-06-22T11:55:44;98930.81;;;34.92;44.00
12215;BME280;6170;42.206;24.142;2023-06-22T11:58:11;98921.19;;;34.89;44.03
12215;BME280;6170;42.206;24.142;2023-06-22T12:00:38;98927.31;;;34.95;44.79
12215;BME280;6170;42.206;24.142;2023-06-22T12:03:07;98924.09;;;34.49;46.17
12215;BME280;6170;42.206;24.142;2023-06-22T12:05:34;98928.66;;;34.69;45.59
12215;BME280;6170;42.206;24.142;2023-06-22T12:08:01;98948.94;;;34.70;46.06
12215;BME280;6170;42.206;24.142;2023-06-22T12:10:28;98924.41;;;35.07;44.47
12215;BME280;6170;42.206;24.142;2023-06-22T12:12:55;98962.41;;;35.15;42.41
12215;BME280;6170;42.206;24.142;2023-06-22T12:15:23;98931.53;;;35.04;43.77
12215;BME280;6170;42.206;24.142;2023-06-22T12:17:50;98913.94;;;35.00;43.71
12215;BME280;6170;42.206;24.142;2023-06-22T12:20:18;98925.50;;;34.71;42.58
12215;BME280;6170;42.206;24.142;2023-06-22T12:22:45;98920.81;;;34.59;44.10
12215;BME280;6170;42.206;24.142;2023-06-22T12:25:13;98897.72;;;34.15;45.84
12215;BME280;6170;42.206;24.142;2023-06-22T12:27:39;98908.03;;;33.87;47.25
12215;BME280;6170;42.206;24.142;2023-06-22T12:30:08;98902.81;;;34.13;43.66
12215;BME280;6170;42.206;24.142;2023-06-22T12:32:35;98942.94;;;34.68;43.07
12215;BME280;6170;42.206;24.142;2023-06-22T12:35:02;98938.09;;;34.81;42.14
12215;BME280;6170;42.206;24.142;2023-06-22T12:37:32;98947.41;;;34.88;42.61
12215;BME280;6170;42.206;24.142;2023-06-22T12:39:59;98901.09;;;34.09;42.82
12215;BME280;6170;42.206;24.142;2023-06-22T12:42:26;98937.59;;;34.19;43.82
12215;BME280;6170;42.206;24.142;2023-06-22T12:44:53;98903.34;;;34.31;44.30
12215;BME280;6170;42.206;24.142;2023-06-22T12:47:20;98923.84;;;33.59;43.41
12215;BME280;6170;42.206;24.142;2023-06-22T12:49:47;98949.22;;;31.98;47.70
12215;BME280;6170;42.206;24.142;2023-06-22T12:52:14;98896.66;;;30.72;51.13
12215;BME280;6170;42.206;24.142;2023-06-22T12:54:42;98951.91;;;31.36;49.75
12215;BME280;6170;42.206;24.142;2023-06-22T12:57:09;98904.75;;;30.86;50.21
12215;BME280;6170;42.206;24.142;2023-06-22T12:59:36;98908.56;;;30.72;52.04
12215;BME280;6170;42.206;24.142;2023-06-22T13:02:03;98908.19;;;30.83;50.89